Time;durP1;ratioP1;P1;durP2;ratioP2;P2;SDS_P1;SDS_P2;PMS_P1;PMS_P2;Temp;Humidity;BMP_temperature;BMP_pressure;BME280_temperature;BME280_humidity;BME280_pressure;Samples;Min_cycle;Max_cycle;Signal;HPM_P1;HPM_P2
2023/04/30 00:02:09;;;;;;;;;;;;;;;14.01;83.53;101827.66;7360046;19;19928;-63
2023/04/30 00:04:36;;;;;;;;;;;;;;;14.00;83.37;101828.63;7361963;19;19923;-63
2023/04/30 00:07:03;;;;;;;;;;;;;;;13.98;83.55;101826.13;7360476;19;19927;-63
2023/04/30 00:09:30;;;;;;;;;;;;;;;13.94;82.82;101827.41;7360277;19;19922;-62
2023/04/30 00:11:57;;;;;;;;;;;;;;;13.92;82.55;101817.94;7358355;19;19943;-61
2023/04/30 00:14:24;;;;;;;;;;;;;;;13.90;81.60;101823.41;7360064;19;19918;-62
2023/04/30 00:16:50;;;;;;;;;;;;;;;13.87;81.50;101820.22;7359766;19;19922;-62
2023/04/30 00:19:17;;;;;;;;;;;;;;;13.87;81.73;101825.50;7366733;19;19952;-62
2023/04/30 00:21:44;;;;;;;;;;;;;;;13.83;81.66;101819.69;7363417;19;19915;-62
2023/04/30 00:24:11;;;;;;;;;;;;;;;13.82;81.89;101820.66;7360715;19;19941;-61
2023/04/30 00:26:38;;;;;;;;;;;;;;;13.81;81.54;101826.97;7362600;19;20030;-62
2023/04/30 00:29:05;;;;;;;;;;;;;;;13.79;80.68;101828.09;7358761;19;19929;-63
2023/04/30 00:31:32;;;;;;;;;;;;;;;13.78;79.81;101826.41;7361070;19;19919;-62
2023/04/30 00:33:59;;;;;;;;;;;;;;;13.77;78.54;101825.56;7358828;19;19986;-61
2023/04/30 00:36:26;;;;;;;;;;;;;;;13.72;78.10;101825.19;7361162;19;20317;-66
2023/04/30 00:38:53;;;;;;;;;;;;;;;13.71;79.78;101816.41;7359827;19;19933;-62
2023/04/30 00:41:20;;;;;;;;;;;;;;;13.71;79.51;101810.31;7359627;19;19937;-61
2023/04/30 00:43:46;;;;;;;;;;;;;;;13.70;80.76;101813.94;7361322;19;20329;-62
2023/04/30 00:46:13;;;;;;;;;;;;;;;13.65;80.30;101818.84;7355374;19;19918;-62
2023/04/30 00:48:40;;;;;;;;;;;;;;;13.61;80.79;101818.28;7360339;19;19914;-63
2023/04/30 00:51:07;;;;;;;;;;;;;;;13.59;80.19;101819.44;7359266;19;19925;-63
2023/04/30 00:53:35;;;;;;;;;;;;;;;13.56;78.98;101814.44;7358932;19;19929;-63
2023/04/30 00:56:02;;;;;;;;;;;;;;;13.54;78.74;101819.88;7362097;19;19925;-63
2023/04/30 00:58:29;;;;;;;;;;;;;;;13.53;79.94;101812.09;7360593;19;20254;-62
2023/04/30 01:01:00;;;;;;;;;;;;;;;13.53;80.69;101815.56;7353071;19;20247;-62
2023/04/30 01:03:27;;;;;;;;;;;;;;;13.53;80.83;101817.38;7354569;19;19919;-63
2023/04/30 01:05:54;;;;;;;;;;;;;;;13.51;79.60;101816.69;7359643;19;19911;-62
2023/04/30 01:08:21;;;;;;;;;;;;;;;13.45;78.95;101804.91;7358829;19;19926;-62
2023/04/30 01:10:52;;;;;;;;;;;;;;;13.43;78.95;101804.19;7357642;19;20467;-62
2023/04/30 01:13:29;;;;;;;;;;;;;;;13.39;78.28;101805.47;7358344;19;19921;-62
2023/04/30 01:15:59;;;;;;;;;;;;;;;13.35;78.38;101803.28;7357303;19;19926;-62
2023/04/30 01:18:30;;;;;;;;;;;;;;;13.32;78.71;101801.75;7357896;19;19923;-61
2023/04/30 01:21:00;;;;;;;;;;;;;;;13.31;78.50;101807.19;7356724;19;19927;-63
2023/04/30 01:23:36;;;;;;;;;;;;;;;13.30;78.85;101808.19;7353529;19;19915;-62
2023/04/30 01:26:12;;;;;;;;;;;;;;;13.31;80.00;101815.13;7358868;19;19923;-63
2023/04/30 01:28:42;;;;;;;;;;;;;;;13.29;79.11;101802.06;7358681;19;19915;-62
2023/04/30 01:31:12;;;;;;;;;;;;;;;13.27;78.48;101804.00;7356699;19;20544;-62
2023/04/30 01:33:40;;;;;;;;;;;;;;;13.25;78.19;101800.69;7360321;19;21614;-62
2023/04/30 01:36:16;;;;;;;;;;;;;;;13.20;79.08;101803.78;7357276;19;20288;-62
2023/04/30 01:38:52;;;;;;;;;;;;;;;13.17;79.90;101809.31;7359145;19;19918;-61
2023/04/30 01:41:20;;;;;;;;;;;;;;;13.12;80.11;101805.44;7355939;19;19923;-61
2023/04/30 01:43:54;;;;;;;;;;;;;;;13.09;81.90;101801.28;7359537;19;19930;-62
2023/04/30 01:46:26;;;;;;;;;;;;;;;13.07;80.72;101805.03;7356130;19;19933;-61
2023/04/30 01:49:02;;;;;;;;;;;;;;;13.00;80.14;101798.66;7358344;19;20735;-62
2023/04/30 01:51:31;;;;;;;;;;;;;;;12.96;79.69;101808.66;7354066;19;19918;-62
2023/04/30 01:54:02;;;;;;;;;;;;;;;12.97;81.03;101804.22;7357179;19;19954;-63
2023/04/30 01:56:37;;;;;;;;;;;;;;;12.97;81.68;101804.22;7354525;19;20236;-61
2023/04/30 01:59:04;;;;;;;;;;;;;;;12.96;82.30;101791.97;7357128;19;19918;-61
2023/04/30 02:01:32;;;;;;;;;;;;;;;12.91;81.42;101788.94;7355493;19;20826;-62
2023/04/30 02:03:59;;;;;;;;;;;;;;;12.89;81.28;101791.75;7356838;19;19961;-62
2023/04/30 02:06:27;;;;;;;;;;;;;;;12.90;81.18;101790.75;7357750;19;19919;-62
2023/04/30 02:08:55;;;;;;;;;;;;;;;12.88;80.82;101786.59;7357388;19;21236;-61
2023/04/30 02:11:23;;;;;;;;;;;;;;;12.88;81.16;101789.25;7355997;19;20535;-62
2023/04/30 02:13:50;;;;;;;;;;;;;;;12.89;82.19;101790.91;7357574;19;19923;-60
2023/04/30 02:16:17;;;;;;;;;;;;;;;12.88;81.95;101794.53;7354433;19;19926;-63
2023/04/30 02:18:44;;;;;;;;;;;;;;;12.83;82.36;101787.03;7357750;19;20883;-62
2023/04/30 02:21:11;;;;;;;;;;;;;;;12.84;81.87;101794.81;7354978;19;19932;-62
2023/04/30 02:23:38;;;;;;;;;;;;;;;12.84;81.29;101794.00;7357403;19;19926;-62
2023/04/30 02:26:05;;;;;;;;;;;;;;;12.81;80.95;101788.97;7355991;19;19934;-64
2023/04/30 02:28:32;;;;;;;;;;;;;;;12.81;80.82;101802.19;7356116;19;19926;-63
2023/04/30 02:30:58;;;;;;;;;;;;;;;12.78;80.98;101792.75;7352561;19;20943;-61
2023/04/30 02:33:25;;;;;;;;;;;;;;;12.78;81.86;101790.13;7354567;19;19919;-64
2023/04/30 02:35:54;;;;;;;;;;;;;;;12.79;83.59;101791.78;7363377;19;19951;-61
2023/04/30 02:38:20;;;;;;;;;;;;;;;12.77;82.79;101787.59;7363796;19;19922;-62
2023/04/30 02:40:47;;;;;;;;;;;;;;;12.75;82.34;101782.47;7365263;19;20501;-62
2023/04/30 02:43:14;;;;;;;;;;;;;;;12.72;81.05;101782.75;7362100;19;19944;-63
2023/04/30 02:45:41;;;;;;;;;;;;;;;12.70;80.87;101781.22;7360719;19;20465;-60
2023/04/30 02:48:08;;;;;;;;;;;;;;;12.66;81.45;101778.03;7363426;19;20042;-62
2023/04/30 02:50:35;;;;;;;;;;;;;;;12.66;82.89;101775.41;7361587;19;19915;-62
2023/04/30 02:53:02;;;;;;;;;;;;;;;12.64;82.74;101768.59;7360021;19;19919;-62
2023/04/30 02:55:29;;;;;;;;;;;;;;;12.64;82.30;101771.25;7360771;19;19919;-61
2023/04/30 02:57:56;;;;;;;;;;;;;;;12.61;82.91;101772.34;7364193;19;19926;-62
2023/04/30 03:00:23;;;;;;;;;;;;;;;12.61;83.23;101775.00;7359066;19;19915;-61
2023/04/30 03:02:50;;;;;;;;;;;;;;;12.58;81.91;101775.28;7362592;19;20334;-63
2023/04/30 03:05:17;;;;;;;;;;;;;;;12.56;82.33;101766.66;7363466;19;19927;-62
2023/04/30 03:07:44;;;;;;;;;;;;;;;12.55;82.36;101772.09;7357254;19;19925;-62
2023/04/30 03:10:11;;;;;;;;;;;;;;;12.55;82.13;101774.72;7361860;19;19925;-61
2023/04/30 03:12:38;;;;;;;;;;;;;;;12.53;82.92;101774.03;7363899;19;19942;-62
2023/04/30 03:15:05;;;;;;;;;;;;;;;12.50;83.13;101769.88;7361151;19;20518;-62
2023/04/30 03:17:32;;;;;;;;;;;;;;;12.47;82.41;101771.97;7359695;19;19915;-62
2023/04/30 03:19:59;;;;;;;;;;;;;;;12.46;81.88;101772.94;7361436;19;19915;-60
2023/04/30 03:22:26;;;;;;;;;;;;;;;12.45;81.67;101777.38;7360493;19;19915;-62
2023/04/30 03:24:53;;;;;;;;;;;;;;;12.42;81.67;101767.13;7361347;19;19929;-63
2023/04/30 03:27:19;;;;;;;;;;;;;;;12.42;82.30;101773.22;7360345;19;19919;-62
2023/04/30 03:29:47;;;;;;;;;;;;;;;12.41;82.82;101774.19;7355095;19;19918;-62
2023/04/30 03:32:14;;;;;;;;;;;;;;;12.37;82.17;101778.09;7359418;19;19925;-61
2023/04/30 03:34:41;;;;;;;;;;;;;;;12.35;82.69;101771.28;7361710;19;19914;-62
2023/04/30 03:37:08;;;;;;;;;;;;;;;12.33;82.04;101771.44;7361423;19;19915;-62
2023/04/30 03:39:35;;;;;;;;;;;;;;;12.31;81.26;101767.25;7361893;19;19926;-63
2023/04/30 03:42:02;;;;;;;;;;;;;;;12.30;82.28;101766.44;7359545;19;19915;-62
2023/04/30 03:44:29;;;;;;;;;;;;;;;12.31;82.44;101768.09;7357094;19;19990;-61
2023/04/30 03:46:56;;;;;;;;;;;;;;;12.32;83.73;101763.66;7357336;19;19927;-66
2023/04/30 03:49:22;;;;;;;;;;;;;;;12.33;83.41;101767.97;7361381;19;19923;-63
2023/04/30 03:51:49;;;;;;;;;;;;;;;12.30;83.38;101769.06;7361563;19;19926;-62
2023/04/30 03:54:16;;;;;;;;;;;;;;;12.29;82.38;101770.03;7360731;19;19915;-63
2023/04/30 03:56:43;;;;;;;;;;;;;;;12.24;81.75;101766.19;7361250;19;19918;-63
2023/04/30 03:59:10;;;;;;;;;;;;;;;12.20;82.29;101770.03;7355816;19;20505;-62
2023/04/30 04:01:37;;;;;;;;;;;;;;;12.19;83.23;101766.56;7357556;19;19915;-63
2023/04/30 04:04:04;;;;;;;;;;;;;;;12.19;83.70;101761.28;7360969;19;19919;-63
2023/04/30 04:06:31;;;;;;;;;;;;;;;12.17;83.78;101765.91;7361348;19;20502;-64
2023/04/30 04:08:58;;;;;;;;;;;;;;;12.15;83.65;101770.47;7359189;19;19919;-64
2023/04/30 04:11:25;;;;;;;;;;;;;;;12.15;82.51;101770.47;7359572;19;20283;-64
2023/04/30 04:13:52;;;;;;;;;;;;;;;12.13;82.08;101768.97;7361910;19;20397;-65
2023/04/30 04:16:19;;;;;;;;;;;;;;;12.13;82.25;101763.69;7355454;19;19922;-64
2023/04/30 04:18:46;;;;;;;;;;;;;;;12.11;83.08;101763.81;7361553;19;20203;-63
2023/04/30 04:21:12;;;;;;;;;;;;;;;12.09;82.90;101763.09;7357148;19;20269;-63
2023/04/30 04:23:42;;;;;;;;;;;;;;;12.05;83.25;101763.53;7355756;19;20444;-64
2023/04/30 04:26:09;;;;;;;;;;;;;;;12.05;83.31;101760.88;7357844;19;19967;-64
2023/04/30 04:28:37;;;;;;;;;;;;;;;12.03;83.47;101757.56;7361648;19;19942;-63
2023/04/30 04:31:04;;;;;;;;;;;;;;;12.03;83.04;101763.69;7358473;19;20383;-64
2023/04/30 04:33:31;;;;;;;;;;;;;;;11.99;82.68;101765.75;7363149;19;19925;-63
2023/04/30 04:35:58;;;;;;;;;;;;;;;12.02;83.45;101759.38;7361400;19;20438;-64
2023/04/30 04:38:25;;;;;;;;;;;;;;;12.03;84.04;101768.97;7360273;19;19951;-64
2023/04/30 04:40:53;;;;;;;;;;;;;;;12.05;83.66;101776.72;7357002;19;20402;-64
2023/04/30 04:43:22;;;;;;;;;;;;;;;12.04;84.20;101772.44;7358172;19;20473;-64
2023/04/30 04:45:49;;;;;;;;;;;;;;;11.99;83.76;101768.38;7356365;19;19915;-64
2023/04/30 04:48:16;;;;;;;;;;;;;;;11.99;83.33;101767.56;7357134;19;20416;-65
2023/04/30 04:50:43;;;;;;;;;;;;;;;12.00;82.69;101761.31;7357996;19;19922;-64
2023/04/30 04:53:09;;;;;;;;;;;;;;;11.99;83.37;101757.84;7359892;19;19923;-64
2023/04/30 04:55:36;;;;;;;;;;;;;;;11.97;83.82;101756.31;7357172;19;19919;-64
2023/04/30 04:58:03;;;;;;;;;;;;;;;11.98;83.86;101765.91;7359022;19;19950;-66
2023/04/30 05:00:30;;;;;;;;;;;;;;;12.00;84.40;101766.59;7355374;19;19926;-65
2023/04/30 05:02:57;;;;;;;;;;;;;;;12.00;83.70;101766.59;7356880;19;19911;-64
2023/04/30 05:05:24;;;;;;;;;;;;;;;12.03;83.30;101773.41;7357025;19;19925;-63
2023/04/30 05:07:53;;;;;;;;;;;;;;;11.98;82.76;101766.75;7359031;19;20394;-64
2023/04/30 05:10:20;;;;;;;;;;;;;;;12.03;84.05;101760.22;7356304;19;19915;-68
2023/04/30 05:12:47;;;;;;;;;;;;;;;12.06;84.35;101768.66;7357796;19;19910;-63
2023/04/30 05:15:14;;;;;;;;;;;;;;;12.07;84.26;101764.22;7356516;19;19926;-65
2023/04/30 05:17:41;;;;;;;;;;;;;;;12.07;84.28;101765.06;7360383;19;19930;-65
2023/04/30 05:20:08;;;;;;;;;;;;;;;12.08;84.74;101763.25;7358235;19;19945;-64
2023/04/30 05:22:35;;;;;;;;;;;;;;;12.09;83.98;101762.31;7359284;19;19940;-64
2023/04/30 05:25:03;;;;;;;;;;;;;;;12.10;84.06;101756.03;7354074;19;20068;-65
2023/04/30 05:27:29;;;;;;;;;;;;;;;12.10;84.08;101764.78;7358430;19;20748;-64
2023/04/30 05:29:56;;;;;;;;;;;;;;;12.15;84.61;101765.19;7356132;19;20302;-64
2023/04/30 05:32:23;;;;;;;;;;;;;;;12.17;84.68;101760.63;7356978;19;20010;-63
2023/04/30 05:34:51;;;;;;;;;;;;;;;12.23;84.98;101767.16;7356121;19;20300;-65
2023/04/30 05:37:19;;;;;;;;;;;;;;;12.25;84.72;101767.81;7359050;19;19964;-65
2023/04/30 05:39:46;;;;;;;;;;;;;;;12.24;83.73;101768.81;7357311;19;19919;-63
2023/04/30 05:42:13;;;;;;;;;;;;;;;12.25;82.96;101763.38;7360015;19;20287;-64
2023/04/30 05:44:40;;;;;;;;;;;;;;;12.27;83.06;101772.00;7357009;19;20867;-64
2023/04/30 05:47:07;;;;;;;;;;;;;;;12.30;83.85;101768.22;7356899;19;20336;-64
2023/04/30 05:49:36;;;;;;;;;;;;;;;12.32;83.50;101775.06;7355386;19;20043;-64
2023/04/30 05:52:03;;;;;;;;;;;;;;;12.37;83.52;101767.53;7360665;19;20348;-64
2023/04/30 05:54:30;;;;;;;;;;;;;;;12.42;83.81;101773.22;7357071;19;19979;-64
2023/04/30 05:56:56;;;;;;;;;;;;;;;12.47;82.83;101775.44;7358868;19;19919;-65
2023/04/30 05:59:24;;;;;;;;;;;;;;;12.49;82.31;101780.59;7356379;19;20667;-64
2023/04/30 06:01:51;;;;;;;;;;;;;;;12.57;82.11;101772.78;7357638;19;19922;-64
2023/04/30 06:04:18;;;;;;;;;;;;;;;12.62;81.80;101774.03;7358704;19;20362;-65
2023/04/30 06:06:45;;;;;;;;;;;;;;;12.67;82.17;101777.06;7356172;19;19939;-64
2023/04/30 06:09:12;;;;;;;;;;;;;;;12.75;83.04;101771.88;7356647;19;20470;-65
2023/04/30 06:11:39;;;;;;;;;;;;;;;12.84;82.87;101768.41;7361442;19;19919;-65
2023/04/30 06:14:09;;;;;;;;;;;;;;;12.90;80.81;101766.97;7362540;19;19919;-65
2023/04/30 06:16:36;;;;;;;;;;;;;;;12.97;80.42;101768.06;7363140;19;19929;-64
2023/04/30 06:19:03;;;;;;;;;;;;;;;13.03;79.83;101770.13;7365095;19;20296;-63
2023/04/30 06:21:30;;;;;;;;;;;;;;;13.16;80.54;101770.66;7365898;19;20404;-65
2023/04/30 06:23:57;;;;;;;;;;;;;;;13.46;79.74;101769.53;7367106;19;20506;-63
2023/04/30 06:26:24;;;;;;;;;;;;;;;13.77;79.55;101775.31;7362791;19;19911;-66
2023/04/30 06:28:51;;;;;;;;;;;;;;;14.05;78.37;101776.09;7367464;19;20197;-64
2023/04/30 06:31:18;;;;;;;;;;;;;;;14.35;75.26;101782.78;7361800;19;19923;-66
2023/04/30 06:33:44;;;;;;;;;;;;;;;14.52;73.81;101782.81;7361723;19;20197;-63
2023/04/30 06:36:12;;;;;;;;;;;;;;;14.64;73.63;101783.34;7362390;19;19915;-63
2023/04/30 06:38:39;;;;;;;;;;;;;;;14.74;73.70;101780.59;7362751;19;19934;-65
2023/04/30 06:41:06;;;;;;;;;;;;;;;14.85;73.62;101781.19;7360789;19;19948;-65
2023/04/30 06:43:33;;;;;;;;;;;;;;;14.98;72.47;101778.91;7364525;19;20404;-65
2023/04/30 06:45:59;;;;;;;;;;;;;;;15.16;71.29;101783.31;7359058;19;21217;-65
2023/04/30 06:48:26;;;;;;;;;;;;;;;15.57;69.24;101779.03;7362783;19;20000;-66
2023/04/30 06:50:53;;;;;;;;;;;;;;;16.03;66.98;101786.41;7362533;19;19915;-65
2023/04/30 06:53:20;;;;;;;;;;;;;;;16.19;65.77;101790.91;7361431;19;19921;-63
2023/04/30 06:55:47;;;;;;;;;;;;;;;16.09;66.67;101792.91;7364823;19;19936;-64
2023/04/30 06:58:14;;;;;;;;;;;;;;;16.01;67.53;101790.22;7365596;19;19931;-63
2023/04/30 07:00:41;;;;;;;;;;;;;;;15.97;68.21;101792.38;7360105;19;19922;-65
2023/04/30 07:03:08;;;;;;;;;;;;;;;15.90;67.39;101794.00;7362308;19;20479;-64
2023/04/30 07:05:35;;;;;;;;;;;;;;;16.02;67.35;101799.84;7362841;19;19933;-65
2023/04/30 07:08:03;;;;;;;;;;;;;;;16.30;66.53;101795.91;7362525;19;19919;-64
2023/04/30 07:10:30;;;;;;;;;;;;;;;16.54;65.43;101800.38;7360724;19;20376;-65
2023/04/30 07:12:58;;;;;;;;;;;;;;;16.52;65.15;101795.22;7361487;19;20900;-66
2023/04/30 07:15:25;;;;;;;;;;;;;;;16.48;65.99;101793.88;7360048;19;19936;-65
2023/04/30 07:17:52;;;;;;;;;;;;;;;16.45;65.45;101798.72;7359523;19;19921;-64
2023/04/30 07:20:19;;;;;;;;;;;;;;;16.40;66.65;101793.06;7361943;19;19945;-65
2023/04/30 07:22:46;;;;;;;;;;;;;;;16.35;66.28;101793.56;7362755;19;19918;-65
2023/04/30 07:25:13;;;;;;;;;;;;;;;16.31;65.65;101786.06;7363263;19;19915;-64
2023/04/30 07:27:40;;;;;;;;;;;;;;;16.24;66.02;101792.09;7363058;19;19919;-66
2023/04/30 07:30:09;;;;;;;;;;;;;;;16.24;67.05;101789.44;7359482;19;19951;-66
2023/04/30 07:32:37;;;;;;;;;;;;;;;16.24;67.68;101792.09;7359197;19;19915;-65
2023/04/30 07:35:05;;;;;;;;;;;;;;;16.30;66.77;101790.59;7361589;19;19929;-65
2023/04/30 07:37:31;;;;;;;;;;;;;;;16.33;66.65;101784.09;7357307;19;19986;-64
2023/04/30 07:40:02;;;;;;;;;;;;;;;16.31;67.06;101786.06;7359597;19;20254;-64
2023/04/30 07:42:29;;;;;;;;;;;;;;;16.32;66.10;101772.63;7357307;19;19911;-65
2023/04/30 07:44:56;;;;;;;;;;;;;;;16.58;65.69;101778.63;7357167;19;19929;-64
2023/04/30 07:47:24;;;;;;;;;;;;;;;17.02;64.81;101783.50;7361252;19;19929;-64
2023/04/30 07:49:51;;;;;;;;;;;;;;;17.44;63.19;101780.50;7358980;19;20434;-64
2023/04/30 07:52:19;;;;;;;;;;;;;;;17.88;62.63;101784.25;7360315;19;19939;-65
2023/04/30 07:54:48;;;;;;;;;;;;;;;18.02;61.79;101787.19;7359026;19;19921;-65
2023/04/30 07:57:16;;;;;;;;;;;;;;;18.10;60.64;101793.28;7360461;19;19915;-66
2023/04/30 07:59:42;;;;;;;;;;;;;;;18.07;60.32;101788.31;7354925;19;19923;-64
2023/04/30 08:02:09;;;;;;;;;;;;;;;18.13;60.32;101789.44;7359726;19;19923;-64
2023/04/30 08:04:36;;;;;;;;;;;;;;;18.17;60.52;101791.56;7360936;19;19923;-64
2023/04/30 08:07:03;;;;;;;;;;;;;;;18.19;60.93;101797.53;7359424;19;19922;-63
2023/04/30 08:09:30;;;;;;;;;;;;;;;18.16;59.85;101792.56;7352513;19;19927;-64
2023/04/30 08:11:57;;;;;;;;;;;;;;;18.20;59.75;101793.03;7360634;19;19931;-64
2023/04/30 08:14:24;;;;;;;;;;;;;;;18.24;60.26;101792.50;7360469;19;20533;-65
2023/04/30 08:16:51;;;;;;;;;;;;;;;18.33;60.24;101788.78;7361344;19;19919;-64
2023/04/30 08:19:18;;;;;;;;;;;;;;;18.27;59.46;101785.97;7358128;19;20383;-65
2023/04/30 08:21:45;;;;;;;;;;;;;;;18.11;59.66;101794.09;7361230;19;20527;-64
2023/04/30 08:24:12;;;;;;;;;;;;;;;18.03;60.24;101788.84;7361166;19;20335;-64
2023/04/30 08:26:39;;;;;;;;;;;;;;;18.01;60.99;101796.19;7359445;19;19942;-64
2023/04/30 08:29:07;;;;;;;;;;;;;;;18.01;61.44;101788.19;7357449;19;19923;-65
2023/04/30 08:31:34;;;;;;;;;;;;;;;18.00;61.26;101786.53;7358973;19;20961;-64
2023/04/30 08:34:01;;;;;;;;;;;;;;;17.96;60.99;101788.72;7359272;19;19936;-64
2023/04/30 08:36:28;;;;;;;;;;;;;;;17.88;60.68;101784.25;7357879;19;19915;-65
2023/04/30 08:38:56;;;;;;;;;;;;;;;17.77;60.97;101784.69;7359993;19;19927;-66
2023/04/30 08:41:25;;;;;;;;;;;;;;;17.73;62.33;101780.69;7357862;19;19942;-65
2023/04/30 08:43:52;;;;;;;;;;;;;;;17.66;62.08;101776.28;7361217;19;19935;-65
2023/04/30 08:46:19;;;;;;;;;;;;;;;17.59;61.49;101776.13;7358715;19;20284;-65
2023/04/30 08:48:47;;;;;;;;;;;;;;;17.58;62.10;101774.44;7359634;19;19960;-63
2023/04/30 08:51:14;;;;;;;;;;;;;;;17.62;61.63;101772.31;7359455;19;19915;-65
2023/04/30 08:53:43;;;;;;;;;;;;;;;17.66;61.41;101776.28;7358571;19;20021;-65
2023/04/30 08:56:10;;;;;;;;;;;;;;;17.69;60.89;101766.09;7358193;19;19923;-65
2023/04/30 08:58:38;;;;;;;;;;;;;;;17.73;60.63;101778.03;7360521;19;19923;-67
2023/04/30 09:01:08;;;;;;;;;;;;;;;17.82;60.43;101771.69;7354071;19;20446;-65
2023/04/30 09:03:36;;;;;;;;;;;;;;;17.90;59.33;101774.28;7357583;19;19919;-65
2023/04/30 09:06:03;;;;;;;;;;;;;;;18.00;58.72;101782.03;7359198;19;19915;-64
2023/04/30 09:08:40;;;;;;;;;;;;;;;18.19;58.02;101770.88;7359224;19;20808;-64
2023/04/30 09:11:17;;;;;;;;;;;;;;;18.36;57.35;101777.75;7357064;19;19921;-65
2023/04/30 09:13:44;;;;;;;;;;;;;;;18.43;55.75;101761.88;7359625;19;20827;-67
2023/04/30 09:16:11;;;;;;;;;;;;;;;18.49;55.61;101766.44;7357631;19;20638;-64
2023/04/30 09:18:38;;;;;;;;;;;;;;;18.54;54.99;101760.63;7359157;19;20516;-65
2023/04/30 09:21:07;;;;;;;;;;;;;;;18.57;54.09;101766.41;7359949;19;19926;-63
2023/04/30 09:23:35;;;;;;;;;;;;;;;18.64;54.04;101766.53;7359065;19;19919;-65
2023/04/30 09:26:02;;;;;;;;;;;;;;;18.69;54.67;101761.47;7358819;19;20338;-63
2023/04/30 09:28:30;;;;;;;;;;;;;;;18.71;53.36;101759.44;7357941;19;19974;-64
2023/04/30 09:30:57;;;;;;;;;;;;;;;18.83;53.50;101759.81;7353723;19;19919;-64
2023/04/30 09:33:24;;;;;;;;;;;;;;;18.92;52.10;101751.53;7357231;19;19919;-63
2023/04/30 09:35:51;;;;;;;;;;;;;;;18.96;52.27;101750.16;7356338;19;19930;-64
2023/04/30 09:38:28;;;;;;;;;;;;;;;19.00;53.51;101747.91;7356578;19;19919;-64
2023/04/30 09:40:57;;;;;;;;;;;;;;;19.06;52.21;101745.34;7333294;19;19940;-64
2023/04/30 09:43:24;;;;;;;;;;;;;;;19.08;51.86;101747.84;7340195;19;20329;-69
2023/04/30 09:45:51;;;;;;;;;;;;;;;19.11;51.42;101744.78;7345365;19;19935;-63
2023/04/30 09:48:22;;;;;;;;;;;;;;;19.11;51.44;101750.13;7351668;19;20482;-65
2023/04/30 09:50:50;;;;;;;;;;;;;;;19.13;49.92;101743.59;7355230;19;19929;-64
2023/04/30 09:53:18;;;;;;;;;;;;;;;19.15;50.27;101746.06;7352113;19;19925;-66
2023/04/30 09:55:48;;;;;;;;;;;;;;;19.16;50.39;101751.22;7341701;19;19961;-65
2023/04/30 09:58:16;;;;;;;;;;;;;;;19.13;50.45;101742.78;7354303;19;19911;-64
2023/04/30 10:00:45;;;;;;;;;;;;;;;19.17;50.35;101746.72;7353305;19;19922;-65
2023/04/30 10:03:13;;;;;;;;;;;;;;;19.17;49.92;101742.22;7353616;19;19931;-65
2023/04/30 10:05:41;;;;;;;;;;;;;;;19.15;51.39;101738.91;7351920;19;19930;-65
2023/04/30 10:08:12;;;;;;;;;;;;;;;19.16;50.63;101748.56;7350850;19;20003;-66
2023/04/30 10:10:42;;;;;;;;;;;;;;;19.23;51.19;101733.47;7354732;19;20046;-64
2023/04/30 10:13:10;;;;;;;;;;;;;;;19.29;50.22;101739.91;7348688;19;19947;-65
2023/04/30 10:15:39;;;;;;;;;;;;;;;19.32;50.60;101733.34;7331733;19;19965;-66
2023/04/30 10:18:10;;;;;;;;;;;;;;;19.30;50.16;101733.53;7348494;19;19968;-65
2023/04/30 10:20:37;;;;;;;;;;;;;;;19.33;49.34;101727.84;7350593;19;20444;-64
2023/04/30 10:23:05;;;;;;;;;;;;;;;19.32;50.25;101736.00;7351989;19;20573;-65
2023/04/30 10:25:33;;;;;;;;;;;;;;;19.33;49.99;101725.16;7352098;19;20359;-63
2023/04/30 10:28:00;;;;;;;;;;;;;;;19.34;49.19;101732.16;7349751;19;19919;-67
2023/04/30 10:30:30;;;;;;;;;;;;;;;19.31;49.99;101726.34;7349471;19;21802;-64
2023/04/30 10:32:57;;;;;;;;;;;;;;;19.30;50.84;101727.38;7352050;19;19923;-64
2023/04/30 10:35:27;;;;;;;;;;;;;;;19.32;50.37;101728.84;7347916;19;19986;-64
2023/04/30 10:38:04;;;;;;;;;;;;;;;19.34;51.29;101717.97;7351545;19;19929;-65
2023/04/30 10:40:38;;;;;;;;;;;;;;;19.35;51.15;101720.44;7353694;19;20002;-65
2023/04/30 10:43:05;;;;;;;;;;;;;;;19.31;51.16;101715.66;7338248;19;19923;-64
2023/04/30 10:45:33;;;;;;;;;;;;;;;19.32;51.54;101709.31;7342919;19;20183;-64
2023/04/30 10:48:01;;;;;;;;;;;;;;;19.30;51.55;101712.16;7345943;19;20401;-64
2023/04/30 10:50:29;;;;;;;;;;;;;;;19.31;51.80;101702.31;7349319;19;19925;-65
2023/04/30 10:53:06;;;;;;;;;;;;;;;19.31;51.44;101705.81;7348754;19;20028;-64
2023/04/30 10:55:38;;;;;;;;;;;;;;;19.30;51.12;101703.38;7340911;19;20024;-65
2023/04/30 10:58:21;;;;;;;;;;;;;;;19.35;51.61;101692.94;7338861;19;19922;-65
2023/04/30 11:00:58;;;;;;;;;;;;;;;19.39;51.90;101688.88;7355873;19;20319;-64
2023/04/30 11:03:27;;;;;;;;;;;;;;;19.48;51.67;101698.44;7356912;19;19927;-63
2023/04/30 11:05:54;;;;;;;;;;;;;;;19.59;52.29;101688.09;7352464;19;19921;-65
2023/04/30 11:08:30;;;;;;;;;;;;;;;19.66;52.04;101688.16;7357681;19;20358;-63
2023/04/30 11:11:00;;;;;;;;;;;;;;;19.68;51.63;101685.28;7359084;19;19922;-65
2023/04/30 11:13:27;;;;;;;;;;;;;;;19.66;51.28;101682.81;7355217;19;19945;-64
2023/04/30 11:16:01;;;;;;;;;;;;;;;19.66;51.04;101679.34;7353383;19;19923;-64
2023/04/30 11:18:28;;;;;;;;;;;;;;;19.64;51.51;101669.66;7354706;19;19926;-66
2023/04/30 11:20:56;;;;;;;;;;;;;;;19.61;52.22;101678.03;7356328;19;19952;-64
2023/04/30 11:23:25;;;;;;;;;;;;;;;19.59;51.69;101671.25;7359929;19;21051;-65
2023/04/30 11:26:06;;;;;;;;;;;;;;;19.63;52.78;101668.00;7356803;19;19930;-65
2023/04/30 11:28:34;;;;;;;;;;;;;;;19.66;51.92;101671.31;7355764;19;19926;-65
2023/04/30 11:31:02;;;;;;;;;;;;;;;19.63;51.08;101664.50;7355590;19;20343;-64
2023/04/30 11:33:30;;;;;;;;;;;;;;;19.62;52.20;101657.50;7339150;19;19933;-65
2023/04/30 11:35:58;;;;;;;;;;;;;;;19.69;53.91;101650.38;7337288;19;19927;-65
2023/04/30 11:38:27;;;;;;;;;;;;;;;19.70;53.62;101652.03;7318923;19;19922;-65
2023/04/30 11:40:54;;;;;;;;;;;;;;;19.75;53.18;101654.97;7357501;19;19915;-65
2023/04/30 11:43:23;;;;;;;;;;;;;;;19.74;52.76;101650.63;7358124;19;19919;-65
2023/04/30 11:45:58;;;;;;;;;;;;;;;19.67;51.42;101652.41;7346636;19;19927;-64
2023/04/30 11:48:33;;;;;;;;;;;;;;;19.69;51.56;101646.88;7351460;19;20671;-64
2023/04/30 11:51:02;;;;;;;;;;;;;;;19.70;51.21;101644.03;7357333;19;20336;-65
2023/04/30 11:53:29;;;;;;;;;;;;;;;19.73;50.20;101645.47;7355765;19;19945;-66
2023/04/30 11:56:01;;;;;;;;;;;;;;;19.73;50.41;101643.63;7342121;19;19959;-65
2023/04/30 11:58:32;;;;;;;;;;;;;;;19.78;50.13;101632.38;7357015;19;19953;-65
2023/04/30 12:01:00;;;;;;;;;;;;;;;19.81;50.00;101632.00;7351616;19;19938;-66
2023/04/30 12:03:28;;;;;;;;;;;;;;;19.88;50.58;101639.03;7358339;19;19969;-66
2023/04/30 12:05:55;;;;;;;;;;;;;;;19.91;49.72;101633.28;7352821;19;20027;-66
2023/04/30 12:08:22;;;;;;;;;;;;;;;19.95;49.18;101626.56;7354059;19;19923;-66
2023/04/30 12:10:49;;;;;;;;;;;;;;;19.98;50.05;101631.50;7357254;19;19925;-65
2023/04/30 12:13:16;;;;;;;;;;;;;;;20.04;50.73;101635.25;7356750;19;19998;-65
2023/04/30 12:15:56;;;;;;;;;;;;;;;20.02;48.91;101618.56;7336933;19;19919;-65
2023/04/30 12:18:23;;;;;;;;;;;;;;;20.07;49.46;101627.66;7358017;19;20876;-66
2023/04/30 12:20:50;;;;;;;;;;;;;;;20.13;49.60;101631.41;7358519;19;20371;-65
2023/04/30 12:23:18;;;;;;;;;;;;;;;20.17;48.61;101615.78;7360068;19;19923;-65
2023/04/30 12:25:46;;;;;;;;;;;;;;;20.24;48.84;101625.50;7354330;19;19915;-65
2023/04/30 12:28:13;;;;;;;;;;;;;;;20.29;48.64;101628.44;7353012;19;19997;-65
2023/04/30 12:30:41;;;;;;;;;;;;;;;20.30;48.64;101629.25;7353708;19;19987;-66
2023/04/30 12:33:09;;;;;;;;;;;;;;;20.28;47.58;101632.13;7354692;19;20010;-65
2023/04/30 12:35:41;;;;;;;;;;;;;;;20.25;47.86;101629.84;7352174;19;20863;-65
2023/04/30 12:38:08;;;;;;;;;;;;;;;20.21;47.01;101617.91;7353723;19;19933;-64
2023/04/30 12:40:35;;;;;;;;;;;;;;;20.16;47.38;101620.34;7356498;19;19918;-66